New Orleans, LA

9:14 PM CDT on August 30, 2014 (GMT -0500)
Mid City Station | Change Station
CLOSE
Current Station
Personal Weather Station
Location: New Orleans, LA
Elevation: 25 ft
Nearby Weather Stations

Elev 25 ft 29.98 °N, 90.08 °W | Updated 1 second ago

Overcast
Overcast
77.2 °F
Feels Like 79 °F
N
0.0
Wind Variable Wind from NNW
Gusts 0.0 mph

Today
High -- | Low -- °F
--% Chance of Precip.
Yesterday
High -- | Low -- °F
Precip. -- in
6:36 AM 7:25 PM
Waxing Crescent, 26% visible
Pressure 30.03 in
Visibility 10.0 miles
Clouds Clear
Heat Index 79 °F
Dew Point 73 °F
Humidity 87%
Rainfall 2.56 in
Snow Depth Not available.
UV 0 out of 12
Pollen 5.40 out of 12
Ozone Good
PM2.5 Good
Flu Activity Not available.
METAR KNEW 310153Z 25007KT 10SM CLR 26/23 A3005 RMK AO2 SLP169 T02610228

More Conditions Fewer Conditions

Pressure 30.03 in
Visibility 10.0 miles
Clouds Clear
Heat Index 79 °F
Dew Point 73 °F
Humidity 87%
Rainfall 2.56 in
Snow Depth Not available.
UV 0 out of 12
Pollen 5.40 out of 12
Ozone Good
PM2.5 Good
Flu Activity Not available.
METAR KNEW 310153Z 25007KT 10SM CLR 26/23 A3005 RMK AO2 SLP169 T02610228

More Conditions Fewer Conditions

10-Day Weather Forecast

Almanac

Astronomy

Aug. 30, 2014 Rise Set
Actual Time 6:36 AM CDT 7:25 PM CDT
Civil Twilight 6:11 AM CDT 7:49 PM CDT
Nautical Twilight 5:43 AM CDT 8:18 PM CDT
Astronomical Twilight 5:13 AM CDT 8:47 PM CDT
Moon 11:00 AM CDT (8/30) 10:23 PM CDT (8/30)
Length of Visible Light 13h 37m
Length of Day
12h 48m
Tomorrow will be 1m 43s shorter.
Waxing Crescent, 26% of the Moon is Illuminated
Today
Waxing Crescent
Sep 2
First Quarter
Sep 8
Full
Sep 15
Last Quarter
Sep 24
New

Today's Extremes

State Highs State Lows

Community

WunderPhotos

Upload Photos

1,748,736 photos uploaded!

Nearby

Air Quality

  Air Quality AQ Index Pollutant
Yesterday Good
OZONE
Yesterday Good
PM2.5
Current Good
PM2.5
Current Good
OZONE
Saturday Good
PM2.5
Saturday Good
OZONE
Sunday Good
PM2.5
Sunday Good
OZONE
Monday Moderate
PM2.5
Monday Good
OZONE

Snow Depth

Station Depth Elevation
No new snow has been reported.

Earthquake Activity

City Distance Mag. Time & Date
No recent earthquake activity has been reported nearby.
Minimum magnitude displayed is 2.5.

Coastal Water Temperatures

Place Temperature
New Canal, LA 80.1 °F
Shell Beach, LA 80.1 °F
Bayou Gauche, LA 82.9 °F

Nearby Weather Stations